Portada
METAR-TAF:

METAR-TAF

Aeropuertos :

Fort Riley, Kansas, Estados Unidos

latitud: 39-06N, longitud: 096-46W, altitud: 325 m

Observación

El informe se hizo hace 1 hora y 8 minutos, a las 04:56 UTC
Viento 11 kt del sur-sureste
Temperatura 28°C
Humedad 66%
Presión 1011 hPa
Visibilidad: 16.1 km
Cielo despejado

METAR: KFRI 070456Z AUTO 16011KT 10SM CLR 28/21 A2986 RMK AO2 SLP097 T02840214

Hora: 01:04 (06:04 UTC)

Pronóstico

El informe se hizo hace 7 horas y 34 minutos, a las 22:30 UTC
Pronóstico válido del 05 a las 22 UTC al 07 a las 03 UTC
Viento 9 kt del sur-sureste
Visibilidad 10 km o más
Escasas nubes a una altura de 18000 ft
Evolucionando progresivamente
del 06 a las 17 UTC al 06 a las 18 UTC
Viento 10 kt del sur con ráfagas de 15 kt
Visibilidad: 0805 m
Cielo despejado

TAF: KFRI 052230Z 0522/0703 15009KT 9999 FEW180 QNH2986INS BECMG 0617/0618 19010G15KT 9999 SKC 510072 QNH2980INS TX36/0622Z TN22/0611Z LAST NO AMDS AFT 0522 NEXT 0805

Observaciones y pronósticos meteorológicos de más de 4000 aeropuertos (mensajes METAR y TAF).

Los puntos amarillos y rojos representan las estaciones disponibles.

Ponga el ratón en el punto deseado para ver el nombre de la estación.

Haga clic para ver las observaciones y los pronósticos meteorológicos.

Para cambiar el mapa : haga clic en los botones verdes con una cruz de color negro para hacer un zoom, en el botón verde con un guión para alejar o en las flechas verdes para mapas adyacentes.


METAR-TAF: